createdAt,value
2022-10-02T00:01:11.541Z,3.5
2022-10-02T00:04:11.758Z,3.7
2022-10-02T00:07:11.562Z,3.8
2022-10-02T00:10:11.623Z,3.4
2022-10-02T00:13:11.607Z,3.2
2022-10-02T00:16:11.656Z,4
2022-10-02T00:19:11.656Z,3.6
2022-10-02T00:22:11.649Z,3.5
2022-10-02T00:25:11.677Z,3.4
2022-10-02T00:28:11.743Z,3.4
2022-10-02T00:31:11.721Z,3.3
2022-10-02T00:34:15.124Z,3
2022-10-02T00:37:11.746Z,2.9
2022-10-02T00:40:11.764Z,3.2
2022-10-02T00:43:11.784Z,3
2022-10-02T00:46:11.867Z,2.9
2022-10-02T00:49:11.834Z,2.8
2022-10-02T00:52:11.844Z,2.8
2022-10-02T00:55:11.862Z,3.1
2022-10-02T00:58:11.873Z,3.2
2022-10-02T01:01:12.087Z,3.4
2022-10-02T01:04:11.911Z,3.2
2022-10-02T01:07:11.883Z,3.1
2022-10-02T01:10:11.890Z,2.9
2022-10-02T01:13:11.883Z,2.6
2022-10-02T01:16:11.911Z,2.6
2022-10-02T01:19:11.891Z,2.8
2022-10-02T01:22:11.918Z,2.5
2022-10-02T01:25:11.891Z,2.3
2022-10-02T01:28:11.967Z,2.4
2022-10-02T01:31:11.935Z,2.3
2022-10-02T01:34:11.896Z,2.7
2022-10-02T01:37:11.900Z,2.2
2022-10-02T01:40:11.927Z,2.2
2022-10-02T01:43:11.909Z,2.2
2022-10-02T01:46:12.100Z,2.2
2022-10-02T01:49:11.905Z,2
2022-10-02T01:52:11.903Z,2.2
2022-10-02T01:55:11.905Z,2.1
2022-10-02T01:58:11.936Z,2
2022-10-02T02:01:11.974Z,1.9
2022-10-02T02:04:11.932Z,2
2022-10-02T02:07:11.959Z,1.9
2022-10-02T02:10:11.975Z,2
2022-10-02T02:13:11.975Z,1.8
2022-10-02T02:16:12.051Z,2.3
2022-10-02T02:19:11.978Z,2.2
2022-10-02T02:22:11.983Z,2.1
2022-10-02T02:25:11.997Z,2.1
2022-10-02T02:28:12.034Z,2.3
2022-10-02T02:31:12.022Z,2.4
2022-10-02T02:34:12.016Z,2.4
2022-10-02T02:37:11.991Z,2.2
2022-10-02T02:40:11.994Z,2.4
2022-10-02T02:43:11.998Z,2.4
2022-10-02T02:46:12.044Z,2.2
2022-10-02T02:49:11.995Z,2.4
2022-10-02T02:52:12.021Z,2.2
2022-10-02T02:55:11.996Z,2.3
2022-10-02T02:58:11.999Z,2.3
2022-10-02T03:01:12.024Z,2.1
2022-10-02T03:04:11.999Z,2.5
2022-10-02T03:07:12.003Z,2.5
2022-10-02T03:10:12.026Z,2.4
2022-10-02T03:13:12.011Z,2.7
2022-10-02T03:16:12.111Z,2.8
2022-10-02T03:19:12.014Z,2.7
2022-10-02T03:22:12.019Z,2.8
2022-10-02T03:25:12.018Z,3.3
2022-10-02T03:28:12.085Z,3.2
2022-10-02T03:31:12.054Z,3.4
2022-10-02T03:34:12.034Z,3.1
2022-10-02T03:37:12.036Z,3.7
2022-10-02T03:40:12.034Z,3.3
2022-10-02T03:43:12.028Z,3.6
2022-10-02T03:46:12.183Z,3.7
2022-10-02T03:49:12.047Z,3.8
2022-10-02T03:52:12.037Z,3.8
2022-10-02T03:55:12.040Z,4.4
2022-10-02T03:58:12.047Z,3.9
2022-10-02T04:01:12.089Z,4.2
2022-10-02T04:04:12.073Z,4.2
2022-10-02T04:07:12.054Z,4.6
2022-10-02T04:10:12.060Z,4.6
2022-10-02T04:13:12.054Z,5.3
2022-10-02T04:16:12.100Z,4.7
2022-10-02T04:19:12.059Z,5.6
2022-10-02T04:22:12.086Z,5.6
2022-10-02T04:25:12.073Z,5.9
2022-10-02T04:28:12.106Z,6.1
2022-10-02T04:31:12.122Z,6.7
2022-10-02T04:34:12.076Z,7.1
2022-10-02T04:37:12.075Z,7.3
2022-10-02T04:40:12.115Z,7.6
2022-10-02T04:43:12.082Z,8.2
2022-10-02T04:46:12.144Z,7.9
2022-10-02T04:49:12.097Z,8.1
2022-10-02T04:52:12.099Z,8.1
2022-10-02T04:55:12.102Z,8.6
2022-10-02T04:58:12.138Z,8.7
2022-10-02T05:01:12.109Z,9.1
2022-10-02T05:04:12.110Z,9.3
2022-10-02T05:07:12.109Z,9.8
2022-10-02T05:10:12.119Z,10
2022-10-02T05:13:12.117Z,9.9
2022-10-02T05:16:12.208Z,10.1
2022-10-02T05:19:12.120Z,10.5
2022-10-02T05:22:12.124Z,10.3
2022-10-02T05:25:12.133Z,10.8
2022-10-02T05:28:12.177Z,10.7
2022-10-02T05:31:12.155Z,10.7
2022-10-02T05:34:12.166Z,10.4
2022-10-02T05:37:12.145Z,10.8
2022-10-02T05:40:12.151Z,11
2022-10-02T05:43:12.147Z,11
2022-10-02T05:46:12.156Z,11
2022-10-02T05:49:12.159Z,10.4
2022-10-02T05:52:12.179Z,10.9
2022-10-02T05:55:12.160Z,10.6
2022-10-02T05:58:12.166Z,11.3
2022-10-02T06:01:12.208Z,11.1
2022-10-02T06:04:12.178Z,11.1
2022-10-02T06:07:12.174Z,11.8
2022-10-02T06:10:12.207Z,11
2022-10-02T06:13:12.185Z,10.5
2022-10-02T06:16:12.355Z,10.7
2022-10-02T06:19:12.196Z,10.9
2022-10-02T06:22:12.191Z,10.4
2022-10-02T06:25:12.202Z,9.8
2022-10-02T06:28:12.285Z,10
2022-10-02T06:31:12.309Z,10
2022-10-02T06:34:12.204Z,10.6
2022-10-02T06:37:12.216Z,10.9
2022-10-02T06:40:12.222Z,11.4
2022-10-02T06:43:12.221Z,11.7
2022-10-02T06:46:12.275Z,12.1
2022-10-02T06:49:12.231Z,11.5
2022-10-02T06:52:12.232Z,11.5
2022-10-02T06:55:12.238Z,11.9
2022-10-02T06:58:12.247Z,10.9
2022-10-02T07:01:12.335Z,11.5
2022-10-02T07:04:12.271Z,11.5
2022-10-02T07:07:12.258Z,10.9
2022-10-02T07:10:12.266Z,10.7
2022-10-02T07:13:12.268Z,11.4
2022-10-02T07:16:12.315Z,11.2
2022-10-02T07:19:12.276Z,11.5
2022-10-02T07:22:32.673Z,11.1
2022-10-02T07:25:12.278Z,10.7
2022-10-02T07:28:12.321Z,10.9
2022-10-02T07:31:12.365Z,10.5
2022-10-02T07:34:12.290Z,10.7
2022-10-02T07:37:12.298Z,10.4
2022-10-02T07:40:12.326Z,10.5
2022-10-02T07:43:12.310Z,9.6
2022-10-02T07:46:12.355Z,9.2
2022-10-02T07:49:12.323Z,8.6
2022-10-02T07:52:12.331Z,8.8
2022-10-02T07:55:12.336Z,8.4
2022-10-02T07:58:12.366Z,8.2
2022-10-02T08:01:12.338Z,8
2022-10-02T08:04:12.357Z,8.7
2022-10-02T08:07:12.353Z,9.2
2022-10-02T08:10:12.361Z,9.8
2022-10-02T08:13:12.367Z,7.6
2022-10-02T08:16:12.429Z,8.2
2022-10-02T08:19:12.375Z,8.7
2022-10-02T08:22:12.388Z,9.2
2022-10-02T08:25:12.388Z,9.6
2022-10-02T08:28:12.447Z,8.4
2022-10-02T08:31:12.446Z,8
2022-10-02T08:34:12.425Z,7.3
2022-10-02T08:37:12.409Z,7.6
2022-10-02T08:40:12.421Z,7.5
2022-10-02T08:43:12.419Z,7.3
2022-10-02T08:46:12.467Z,6.7
2022-10-02T08:49:12.426Z,6
2022-10-02T08:52:12.452Z,5.9
2022-10-02T08:55:12.440Z,5.9
2022-10-02T08:58:12.444Z,5.7
2022-10-02T09:01:12.536Z,5
2022-10-02T09:04:12.459Z,5.3
2022-10-02T09:07:12.463Z,5.2
2022-10-02T09:10:12.485Z,5.1
2022-10-02T09:13:12.470Z,4.9
2022-10-02T09:16:12.557Z,4.4
2022-10-02T09:19:12.479Z,4.2
2022-10-02T09:22:12.488Z,4.2
2022-10-02T09:25:12.493Z,4.5
2022-10-02T09:28:12.595Z,4.3
2022-10-02T09:31:12.589Z,4
2022-10-02T09:34:12.514Z,3.8
2022-10-02T09:37:12.524Z,4
2022-10-02T09:40:12.536Z,3.7
2022-10-02T09:43:12.538Z,3.3
2022-10-02T09:46:12.634Z,3.3
2022-10-02T09:49:12.555Z,3.1
2022-10-02T09:52:12.569Z,2.7
2022-10-02T09:55:12.564Z,2.8
2022-10-02T09:58:12.570Z,2.3
2022-10-02T10:01:12.733Z,2.4
2022-10-02T10:04:12.602Z,2.4
2022-10-02T10:07:13.947Z,2.3
2022-10-02T10:10:12.644Z,2.4
2022-10-02T10:13:12.591Z,2.2
2022-10-02T10:16:12.638Z,2.1
2022-10-02T10:19:12.604Z,2
2022-10-02T10:22:12.625Z,2.1
2022-10-02T10:25:12.613Z,2.3
2022-10-02T10:28:12.664Z,2.1
2022-10-02T10:31:12.678Z,2.3
2022-10-02T10:34:12.616Z,2.1
2022-10-02T10:37:12.622Z,2
2022-10-02T10:40:12.646Z,2
2022-10-02T10:43:16.506Z,2.1
2022-10-02T10:46:12.708Z,1.8
2022-10-02T10:49:12.641Z,2.3
2022-10-02T10:52:12.637Z,2.4
2022-10-02T10:55:12.646Z,1.9
2022-10-02T10:58:12.668Z,1.8
2022-10-02T11:01:12.702Z,2.1
2022-10-02T11:04:12.649Z,1.8
2022-10-02T11:07:12.655Z,2.1
2022-10-02T11:10:12.653Z,1.9
2022-10-02T11:13:12.662Z,1.8
2022-10-02T11:16:12.707Z,2
2022-10-02T11:19:12.659Z,1.6
2022-10-02T11:22:12.672Z,1.6
2022-10-02T11:25:13.226Z,2
2022-10-02T11:28:12.714Z,1.8
2022-10-02T11:31:12.852Z,1.8
2022-10-02T11:34:12.698Z,2.1
2022-10-02T11:37:12.680Z,2.1
2022-10-02T11:40:12.685Z,1.8
2022-10-02T11:43:12.690Z,1.7
2022-10-02T11:46:12.810Z,2.1
2022-10-02T11:49:12.711Z,1.8
2022-10-02T11:52:12.740Z,1.9
2022-10-02T11:55:12.717Z,2.3
2022-10-02T11:58:12.728Z,1.7
2022-10-02T12:01:12.722Z,1.7
2022-10-02T12:04:12.736Z,1.9
2022-10-02T12:07:12.736Z,1.7
2022-10-02T12:10:12.770Z,1.5
2022-10-02T12:13:12.748Z,1.6
2022-10-02T12:16:12.797Z,1.9
2022-10-02T12:19:12.766Z,1.8
2022-10-02T12:22:12.778Z,2.3
2022-10-02T12:25:12.786Z,2.1
2022-10-02T12:28:12.885Z,1.6
2022-10-02T12:31:12.796Z,1.9
2022-10-02T12:34:12.798Z,2
2022-10-02T12:37:12.801Z,1.9
2022-10-02T12:40:12.818Z,1.3
2022-10-02T12:43:12.821Z,1.2
2022-10-02T12:46:12.913Z,1.5
2022-10-02T12:49:12.830Z,1.2
2022-10-02T12:52:12.841Z,1.4
2022-10-02T12:55:12.848Z,1.1
2022-10-02T12:58:12.856Z,1.1
2022-10-02T13:01:12.897Z,1.3
2022-10-02T13:04:12.889Z,1.6
2022-10-02T13:07:12.870Z,1.4
2022-10-02T13:10:12.887Z,1.4
2022-10-02T13:13:12.894Z,1.5
2022-10-02T13:16:12.920Z,1.7
2022-10-02T13:19:12.900Z,1.6
2022-10-02T13:22:12.928Z,1.4
2022-10-02T13:25:12.909Z,1.9
2022-10-02T13:28:12.936Z,1.6
2022-10-02T13:31:12.933Z,2.2
2022-10-02T13:34:12.922Z,1.7
2022-10-02T13:37:12.920Z,1.7
2022-10-02T13:40:13.090Z,1.7
2022-10-02T13:43:12.921Z,1.8
2022-10-02T13:46:12.952Z,1.5
2022-10-02T13:49:12.925Z,1.7
2022-10-02T13:52:12.921Z,1.9
2022-10-02T13:55:12.933Z,1.6
2022-10-02T13:58:12.957Z,1.6
2022-10-02T14:01:12.975Z,1.5
2022-10-02T14:04:12.952Z,1.5
2022-10-02T14:07:12.943Z,1.4
2022-10-02T14:10:12.945Z,1.6
2022-10-02T14:13:12.940Z,1.5
2022-10-02T14:16:13.019Z,1.6
2022-10-02T14:19:12.947Z,1.4
2022-10-02T14:22:12.945Z,1.6
2022-10-02T14:25:12.950Z,1.5
2022-10-02T14:28:12.976Z,1.7
2022-10-02T14:31:13.003Z,1.6
2022-10-02T14:34:12.983Z,1.7
2022-10-02T14:37:12.957Z,1.9
2022-10-02T14:40:12.959Z,1.7
2022-10-02T14:43:12.963Z,1.9
2022-10-02T14:46:12.962Z,1.7
2022-10-02T14:49:12.967Z,1.4
2022-10-02T14:52:12.989Z,1.7
2022-10-02T14:55:12.972Z,1.4
2022-10-02T14:58:12.970Z,1.2
2022-10-02T15:01:13.035Z,1.9
2022-10-02T15:04:12.992Z,1.5
2022-10-02T15:07:12.982Z,1.2
2022-10-02T15:10:13.000Z,1.3
2022-10-02T15:13:12.980Z,1.6
2022-10-02T15:16:13.026Z,1.5
2022-10-02T15:19:12.989Z,0.7
2022-10-02T15:22:12.987Z,0.8
2022-10-02T15:25:16.984Z,0.9
2022-10-02T15:28:34.903Z,0.8
2022-10-02T15:31:13.011Z,1
2022-10-02T15:34:12.990Z,0.8
2022-10-02T15:37:12.994Z,2.5
2022-10-02T15:40:12.994Z,1
2022-10-02T15:43:12.997Z,1
2022-10-02T15:46:13.042Z,0.9
2022-10-02T15:49:13.002Z,0.9
2022-10-02T15:52:13.003Z,1.2
2022-10-02T15:55:16.053Z,1.1
2022-10-02T15:58:13.008Z,1.8
2022-10-02T16:01:13.053Z,1.9
2022-10-02T16:04:13.037Z,1.4
2022-10-02T16:07:13.018Z,1.7
2022-10-02T16:10:13.026Z,1.5
2022-10-02T16:13:13.020Z,1.7
2022-10-02T16:16:13.041Z,1.7
2022-10-02T16:19:13.023Z,1.4
2022-10-02T16:22:17.087Z,1.5
2022-10-02T16:25:13.021Z,1.5
2022-10-02T16:28:13.118Z,1.2
2022-10-02T16:31:13.090Z,1.4
2022-10-02T16:34:13.031Z,1.5
2022-10-02T16:37:13.035Z,1.6
2022-10-02T16:40:13.073Z,1.6
2022-10-02T16:43:13.044Z,1.7
2022-10-02T16:46:13.080Z,1.7
2022-10-02T16:49:13.032Z,1.6
2022-10-02T16:52:13.039Z,1.9
2022-10-02T16:55:13.043Z,1.9
2022-10-02T16:58:13.079Z,1.8
2022-10-02T17:01:13.188Z,1.8
2022-10-02T17:04:13.051Z,1.8
2022-10-02T17:07:13.055Z,1.8
2022-10-02T17:10:16.777Z,2
2022-10-02T17:13:13.058Z,2.1
2022-10-02T17:16:15.403Z,1.9
2022-10-02T17:19:13.064Z,1.7
2022-10-02T17:22:13.068Z,2.2
2022-10-02T17:25:13.069Z,2
2022-10-02T17:28:13.091Z,2
2022-10-02T17:31:13.153Z,2.4
2022-10-02T17:34:13.108Z,2.7
2022-10-02T17:37:13.093Z,2.8
2022-10-02T17:40:13.948Z,1.9
2022-10-02T17:43:13.093Z,2.3
2022-10-02T17:46:13.120Z,2.5
2022-10-02T17:49:13.093Z,2.7
2022-10-02T17:52:13.123Z,2
2022-10-02T17:55:13.107Z,4.4
2022-10-02T17:58:13.109Z,3.3
2022-10-02T18:01:13.149Z,3.6
2022-10-02T18:04:13.107Z,3.2
2022-10-02T18:07:13.120Z,2.8
2022-10-02T18:10:13.138Z,2.4
2022-10-02T18:13:13.118Z,2.1
2022-10-02T18:16:13.142Z,2
2022-10-02T18:19:13.121Z,2.5
2022-10-02T18:22:13.127Z,2.2
2022-10-02T18:25:13.124Z,2.1
2022-10-02T18:28:13.223Z,2.6
2022-10-02T18:31:13.193Z,2.3
2022-10-02T18:34:13.135Z,2.4
2022-10-02T18:37:13.136Z,2
2022-10-02T18:40:13.137Z,2.1
2022-10-02T18:43:13.143Z,2.3
2022-10-02T18:46:13.222Z,2.2
2022-10-02T18:49:13.153Z,2.4
2022-10-02T18:52:13.155Z,2.4
2022-10-02T18:55:13.151Z,2.3
2022-10-02T18:58:13.155Z,2.4
2022-10-02T19:01:13.298Z,2.3
2022-10-02T19:04:13.193Z,2.5
2022-10-02T19:07:13.162Z,2.6
2022-10-02T19:10:13.161Z,2.6
2022-10-02T19:13:17.508Z,2.5
2022-10-02T19:16:13.226Z,2.5
2022-10-02T19:19:13.174Z,2.5
2022-10-02T19:22:13.189Z,2.7
2022-10-02T19:25:13.174Z,2.9
2022-10-02T19:28:13.240Z,2.8
2022-10-02T19:31:13.224Z,2.8
2022-10-02T19:34:13.188Z,2.5
2022-10-02T19:37:13.179Z,3
2022-10-02T19:40:13.319Z,2.6
2022-10-02T19:43:13.193Z,2.8
2022-10-02T19:46:13.278Z,2.6
2022-10-02T19:49:13.206Z,2.5
2022-10-02T19:52:13.206Z,3.1
2022-10-02T19:55:16.064Z,3.4
2022-10-02T19:58:13.231Z,2.6
2022-10-02T20:01:13.259Z,2.7
2022-10-02T20:04:13.222Z,3
2022-10-02T20:07:13.221Z,2.9
2022-10-02T20:10:13.227Z,2.5
2022-10-02T20:13:13.224Z,2.9
2022-10-02T20:16:13.282Z,3.1
2022-10-02T20:19:13.234Z,3
2022-10-02T20:22:13.239Z,3
2022-10-02T20:25:13.247Z,3
2022-10-02T20:28:13.273Z,3.3
2022-10-02T20:31:13.381Z,3.4
2022-10-02T20:34:13.274Z,3.5
2022-10-02T20:37:13.246Z,2.9
2022-10-02T20:40:13.258Z,3
2022-10-02T20:43:13.260Z,3.1
2022-10-02T20:46:13.288Z,3.1
2022-10-02T20:49:13.261Z,2.9
2022-10-02T20:52:13.284Z,3.2
2022-10-02T20:55:13.272Z,3.3
2022-10-02T20:58:13.273Z,3.5
2022-10-02T21:01:13.341Z,3.3
2022-10-02T21:04:13.279Z,3.4
2022-10-02T21:07:13.284Z,3.5
2022-10-02T21:10:13.322Z,3.4
2022-10-02T21:13:13.293Z,3.4
2022-10-02T21:16:13.918Z,3
2022-10-02T21:19:13.294Z,3.4
2022-10-02T21:22:13.300Z,3.5
2022-10-02T21:25:13.310Z,3.5
2022-10-02T21:28:13.505Z,3.5
2022-10-02T21:31:13.363Z,3.3
2022-10-02T21:34:13.321Z,3.3
2022-10-02T21:37:13.330Z,3.4
2022-10-02T21:40:13.329Z,3.2
2022-10-02T21:43:13.333Z,3.5
2022-10-02T21:46:13.408Z,2.8
2022-10-02T21:49:13.347Z,3.1
2022-10-02T21:52:13.350Z,3.1
2022-10-02T21:55:13.354Z,3.1
2022-10-02T21:58:13.442Z,3.1
2022-10-02T22:01:13.387Z,3.2
2022-10-02T22:04:13.388Z,2.9
2022-10-02T22:07:13.367Z,3
2022-10-02T22:10:13.370Z,3.1
2022-10-02T22:13:13.377Z,2.9
2022-10-02T22:16:13.532Z,3.1
2022-10-02T22:19:16.625Z,2.5
2022-10-02T22:22:13.417Z,2.8
2022-10-02T22:25:13.401Z,2.9
2022-10-02T22:28:13.415Z,3.1
2022-10-02T22:31:13.461Z,2.9
2022-10-02T22:34:13.399Z,3.1
2022-10-02T22:37:13.419Z,2.8
2022-10-02T22:40:13.439Z,2.8
2022-10-02T22:43:13.420Z,3.3
2022-10-02T22:46:13.465Z,3.1
2022-10-02T22:49:13.431Z,3
2022-10-02T22:52:13.439Z,3
2022-10-02T22:55:13.441Z,3.3
2022-10-02T22:58:13.466Z,3.2
2022-10-02T23:01:13.539Z,3.1
2022-10-02T23:04:13.453Z,3.1
2022-10-02T23:07:13.462Z,2.8
2022-10-02T23:10:13.464Z,3.1
2022-10-02T23:13:13.468Z,3
2022-10-02T23:16:13.525Z,3
2022-10-02T23:19:13.474Z,3.3
2022-10-02T23:22:13.480Z,3.1
2022-10-02T23:25:13.490Z,2.9
2022-10-02T23:28:13.575Z,2.6
2022-10-02T23:31:13.548Z,3.2
2022-10-02T23:34:13.521Z,2.8
2022-10-02T23:37:13.500Z,2.8
2022-10-02T23:40:13.499Z,3.2
2022-10-02T23:43:13.513Z,3
2022-10-02T23:46:13.580Z,3.4
2022-10-02T23:49:13.520Z,2.9
2022-10-02T23:52:13.555Z,2.8
2022-10-02T23:55:13.526Z,3.2
2022-10-02T23:58:13.706Z,3.2
